sensor_id;sensor_type;location;lat;lon;timestamp;P1;durP1;ratioP1;P2;durP2;ratioP2
9524;SDS011;15940;48.734;9.112;2022-12-18T00:02:26;44.17;;;24.63;;
9524;SDS011;15940;48.734;9.112;2022-12-18T00:04:54;49.10;;;24.67;;
9524;SDS011;15940;48.734;9.112;2022-12-18T00:07:22;48.80;;;24.40;;
9524;SDS011;15940;48.734;9.112;2022-12-18T00:09:49;47.43;;;26.10;;
9524;SDS011;15940;48.734;9.112;2022-12-18T00:12:15;53.07;;;25.03;;
9524;SDS011;15940;48.734;9.112;2022-12-18T00:14:42;51.87;;;25.47;;
9524;SDS011;15940;48.734;9.112;2022-12-18T00:17:09;53.97;;;26.03;;
9524;SDS011;15940;48.734;9.112;2022-12-18T00:19:36;46.37;;;24.13;;
9524;SDS011;15940;48.734;9.112;2022-12-18T00:22:05;44.87;;;23.00;;
9524;SDS011;15940;48.734;9.112;2022-12-18T00:24:32;45.23;;;25.10;;
9524;SDS011;15940;48.734;9.112;2022-12-18T00:26:59;52.20;;;26.30;;
9524;SDS011;15940;48.734;9.112;2022-12-18T00:29:25;50.03;;;25.57;;
9524;SDS011;15940;48.734;9.112;2022-12-18T00:31:52;47.60;;;24.83;;
9524;SDS011;15940;48.734;9.112;2022-12-18T00:34:19;52.93;;;24.83;;
9524;SDS011;15940;48.734;9.112;2022-12-18T00:36:47;48.67;;;24.17;;
9524;SDS011;15940;48.734;9.112;2022-12-18T00:39:15;45.27;;;23.50;;
9524;SDS011;15940;48.734;9.112;2022-12-18T00:41:42;45.03;;;24.77;;
9524;SDS011;15940;48.734;9.112;2022-12-18T00:44:26;48.03;;;23.93;;
9524;SDS011;15940;48.734;9.112;2022-12-18T00:46:53;48.07;;;25.43;;
9524;SDS011;15940;48.734;9.112;2022-12-18T00:49:20;47.83;;;24.13;;
9524;SDS011;15940;48.734;9.112;2022-12-18T00:51:47;46.50;;;23.70;;
9524;SDS011;15940;48.734;9.112;2022-12-18T00:54:16;53.50;;;25.67;;
9524;SDS011;15940;48.734;9.112;2022-12-18T00:56:43;44.43;;;24.03;;
9524;SDS011;15940;48.734;9.112;2022-12-18T00:59:11;44.87;;;24.60;;
9524;SDS011;15940;48.734;9.112;2022-12-18T01:01:38;42.50;;;23.33;;
9524;SDS011;15940;48.734;9.112;2022-12-18T01:04:05;49.97;;;24.87;;
9524;SDS011;15940;48.734;9.112;2022-12-18T01:06:32;43.47;;;24.07;;
9524;SDS011;15940;48.734;9.112;2022-12-18T01:08:59;46.10;;;23.60;;
9524;SDS011;15940;48.734;9.112;2022-12-18T01:11:27;46.67;;;24.00;;
9524;SDS011;15940;48.734;9.112;2022-12-18T01:13:54;43.03;;;23.53;;
9524;SDS011;15940;48.734;9.112;2022-12-18T01:16:21;45.37;;;23.57;;
9524;SDS011;15940;48.734;9.112;2022-12-18T01:18:51;48.63;;;24.17;;
9524;SDS011;15940;48.734;9.112;2022-12-18T01:21:19;48.70;;;23.60;;
9524;SDS011;15940;48.734;9.112;2022-12-18T01:23:50;40.93;;;22.53;;
9524;SDS011;15940;48.734;9.112;2022-12-18T01:26:18;41.83;;;23.30;;
9524;SDS011;15940;48.734;9.112;2022-12-18T01:28:47;43.97;;;23.17;;
9524;SDS011;15940;48.734;9.112;2022-12-18T01:31:16;45.70;;;22.90;;
9524;SDS011;15940;48.734;9.112;2022-12-18T01:33:45;43.40;;;23.40;;
9524;SDS011;15940;48.734;9.112;2022-12-18T01:36:19;45.13;;;22.63;;
9524;SDS011;15940;48.734;9.112;2022-12-18T01:38:48;45.40;;;21.13;;
9524;SDS011;15940;48.734;9.112;2022-12-18T01:41:17;44.27;;;22.20;;
9524;SDS011;15940;48.734;9.112;2022-12-18T01:43:52;43.20;;;22.90;;
9524;SDS011;15940;48.734;9.112;2022-12-18T01:46:22;45.50;;;22.73;;
9524;SDS011;15940;48.734;9.112;2022-12-18T01:48:54;45.83;;;24.07;;
9524;SDS011;15940;48.734;9.112;2022-12-18T01:51:25;41.27;;;22.43;;
9524;SDS011;15940;48.734;9.112;2022-12-18T01:53:55;39.13;;;22.20;;
9524;SDS011;15940;48.734;9.112;2022-12-18T01:56:25;40.73;;;21.80;;
9524;SDS011;15940;48.734;9.112;2022-12-18T01:58:55;38.43;;;20.33;;
9524;SDS011;15940;48.734;9.112;2022-12-18T02:01:28;42.57;;;20.80;;
9524;SDS011;15940;48.734;9.112;2022-12-18T02:03:56;37.83;;;21.00;;
9524;SDS011;15940;48.734;9.112;2022-12-18T02:06:46;40.37;;;20.10;;
9524;SDS011;15940;48.734;9.112;2022-12-18T02:09:22;38.83;;;20.77;;
9524;SDS011;15940;48.734;9.112;2022-12-18T02:11:58;39.70;;;21.00;;
9524;SDS011;15940;48.734;9.112;2022-12-18T02:14:34;43.47;;;21.50;;
9524;SDS011;15940;48.734;9.112;2022-12-18T02:17:10;34.00;;;18.43;;
9524;SDS011;15940;48.734;9.112;2022-12-18T02:19:45;37.60;;;19.13;;
9524;SDS011;15940;48.734;9.112;2022-12-18T02:22:29;35.60;;;19.50;;
9524;SDS011;15940;48.734;9.112;2022-12-18T02:25:10;38.03;;;19.10;;
9524;SDS011;15940;48.734;9.112;2022-12-18T02:27:53;42.20;;;20.23;;
9524;SDS011;15940;48.734;9.112;2022-12-18T02:30:24;37.43;;;19.93;;
9524;SDS011;15940;48.734;9.112;2022-12-18T02:32:52;35.70;;;19.07;;
9524;SDS011;15940;48.734;9.112;2022-12-18T02:35:23;39.20;;;20.37;;
9524;SDS011;15940;48.734;9.112;2022-12-18T02:37:53;35.43;;;18.80;;
9524;SDS011;15940;48.734;9.112;2022-12-18T02:40:22;38.87;;;20.33;;
9524;SDS011;15940;48.734;9.112;2022-12-18T02:42:53;36.87;;;19.17;;
9524;SDS011;15940;48.734;9.112;2022-12-18T02:45:20;37.87;;;18.97;;
9524;SDS011;15940;48.734;9.112;2022-12-18T02:47:48;35.57;;;18.60;;
9524;SDS011;15940;48.734;9.112;2022-12-18T02:50:18;36.97;;;18.70;;
9524;SDS011;15940;48.734;9.112;2022-12-18T02:52:55;33.53;;;17.63;;
9524;SDS011;15940;48.734;9.112;2022-12-18T02:55:35;31.87;;;17.57;;
9524;SDS011;15940;48.734;9.112;2022-12-18T02:58:17;28.43;;;17.03;;
9524;SDS011;15940;48.734;9.112;2022-12-18T03:00:53;38.77;;;18.33;;
9524;SDS011;15940;48.734;9.112;2022-12-18T03:03:28;32.10;;;16.50;;
9524;SDS011;15940;48.734;9.112;2022-12-18T03:06:02;32.80;;;17.63;;
9524;SDS011;15940;48.734;9.112;2022-12-18T03:08:36;27.90;;;16.27;;
9524;SDS011;15940;48.734;9.112;2022-12-18T03:11:09;32.70;;;16.63;;
9524;SDS011;15940;48.734;9.112;2022-12-18T03:13:40;30.70;;;16.50;;
9524;SDS011;15940;48.734;9.112;2022-12-18T03:16:12;33.30;;;17.57;;
9524;SDS011;15940;48.734;9.112;2022-12-18T03:18:47;29.73;;;16.30;;
9524;SDS011;15940;48.734;9.112;2022-12-18T03:21:20;32.10;;;16.57;;
9524;SDS011;15940;48.734;9.112;2022-12-18T03:23:58;30.60;;;16.67;;
9524;SDS011;15940;48.734;9.112;2022-12-18T03:26:27;31.83;;;17.23;;
9524;SDS011;15940;48.734;9.112;2022-12-18T03:28:57;30.03;;;17.03;;
9524;SDS011;15940;48.734;9.112;2022-12-18T03:31:30;30.97;;;16.37;;
9524;SDS011;15940;48.734;9.112;2022-12-18T03:34:07;26.10;;;14.97;;
9524;SDS011;15940;48.734;9.112;2022-12-18T03:36:39;28.80;;;15.37;;
9524;SDS011;15940;48.734;9.112;2022-12-18T03:39:06;25.83;;;15.17;;
9524;SDS011;15940;48.734;9.112;2022-12-18T03:41:34;27.23;;;16.10;;
9524;SDS011;15940;48.734;9.112;2022-12-18T03:44:12;30.23;;;15.90;;
9524;SDS011;15940;48.734;9.112;2022-12-18T03:46:46;30.37;;;16.27;;
9524;SDS011;15940;48.734;9.112;2022-12-18T03:49:25;29.83;;;16.33;;
9524;SDS011;15940;48.734;9.112;2022-12-18T03:52:01;28.50;;;16.30;;
9524;SDS011;15940;48.734;9.112;2022-12-18T03:54:31;26.10;;;15.20;;
9524;SDS011;15940;48.734;9.112;2022-12-18T03:57:01;26.30;;;15.03;;
9524;SDS011;15940;48.734;9.112;2022-12-18T03:59:34;28.17;;;15.90;;
9524;SDS011;15940;48.734;9.112;2022-12-18T04:02:03;27.47;;;15.73;;
9524;SDS011;15940;48.734;9.112;2022-12-18T04:04:33;27.00;;;15.13;;
9524;SDS011;15940;48.734;9.112;2022-12-18T04:07:01;26.57;;;14.43;;
9524;SDS011;15940;48.734;9.112;2022-12-18T04:09:29;27.70;;;15.80;;
9524;SDS011;15940;48.734;9.112;2022-12-18T04:11:58;23.47;;;14.87;;
9524;SDS011;15940;48.734;9.112;2022-12-18T04:14:25;27.10;;;15.13;;
9524;SDS011;15940;48.734;9.112;2022-12-18T04:16:54;28.60;;;15.97;;
9524;SDS011;15940;48.734;9.112;2022-12-18T04:19:21;28.10;;;15.03;;
9524;SDS011;15940;48.734;9.112;2022-12-18T04:21:48;27.53;;;15.13;;
9524;SDS011;15940;48.734;9.112;2022-12-18T04:24:15;28.83;;;15.70;;
9524;SDS011;15940;48.734;9.112;2022-12-18T04:26:42;27.30;;;15.20;;
9524;SDS011;15940;48.734;9.112;2022-12-18T04:29:09;23.80;;;14.47;;
9524;SDS011;15940;48.734;9.112;2022-12-18T04:31:36;26.40;;;15.70;;
9524;SDS011;15940;48.734;9.112;2022-12-18T04:34:04;26.97;;;14.60;;
9524;SDS011;15940;48.734;9.112;2022-12-18T04:36:31;27.23;;;15.17;;
9524;SDS011;15940;48.734;9.112;2022-12-18T04:38:58;24.43;;;14.97;;
9524;SDS011;15940;48.734;9.112;2022-12-18T04:41:25;26.30;;;14.70;;
9524;SDS011;15940;48.734;9.112;2022-12-18T04:43:52;29.17;;;14.43;;
9524;SDS011;15940;48.734;9.112;2022-12-18T04:46:19;28.93;;;15.20;;
9524;SDS011;15940;48.734;9.112;2022-12-18T04:48:46;27.90;;;15.17;;
9524;SDS011;15940;48.734;9.112;2022-12-18T04:51:14;26.83;;;15.27;;
9524;SDS011;15940;48.734;9.112;2022-12-18T04:53:41;26.77;;;14.43;;
9524;SDS011;15940;48.734;9.112;2022-12-18T04:56:09;30.27;;;15.60;;
9524;SDS011;15940;48.734;9.112;2022-12-18T04:58:40;29.37;;;15.97;;
9524;SDS011;15940;48.734;9.112;2022-12-18T05:01:09;28.37;;;15.33;;
9524;SDS011;15940;48.734;9.112;2022-12-18T05:03:37;31.47;;;15.57;;
9524;SDS011;15940;48.734;9.112;2022-12-18T05:06:04;25.90;;;14.60;;
9524;SDS011;15940;48.734;9.112;2022-12-18T05:08:33;29.53;;;15.20;;
9524;SDS011;15940;48.734;9.112;2022-12-18T05:11:01;28.73;;;14.97;;
9524;SDS011;15940;48.734;9.112;2022-12-18T05:13:30;29.63;;;15.73;;
9524;SDS011;15940;48.734;9.112;2022-12-18T05:15:58;26.60;;;14.43;;
9524;SDS011;15940;48.734;9.112;2022-12-18T05:18:25;25.63;;;14.27;;
9524;SDS011;15940;48.734;9.112;2022-12-18T05:20:53;27.77;;;14.80;;
9524;SDS011;15940;48.734;9.112;2022-12-18T05:23:21;29.67;;;15.30;;
9524;SDS011;15940;48.734;9.112;2022-12-18T05:25:51;28.80;;;15.60;;
9524;SDS011;15940;48.734;9.112;2022-12-18T05:28:21;32.00;;;15.57;;
9524;SDS011;15940;48.734;9.112;2022-12-18T05:30:49;26.47;;;14.43;;
9524;SDS011;15940;48.734;9.112;2022-12-18T05:33:18;32.90;;;16.00;;
9524;SDS011;15940;48.734;9.112;2022-12-18T05:35:49;26.27;;;13.67;;
9524;SDS011;15940;48.734;9.112;2022-12-18T05:38:17;27.63;;;15.03;;
9524;SDS011;15940;48.734;9.112;2022-12-18T05:40:44;27.93;;;15.63;;
9524;SDS011;15940;48.734;9.112;2022-12-18T05:43:13;28.13;;;15.03;;
9524;SDS011;15940;48.734;9.112;2022-12-18T05:45:40;26.80;;;15.30;;
9524;SDS011;15940;48.734;9.112;2022-12-18T05:48:08;25.40;;;14.57;;
9524;SDS011;15940;48.734;9.112;2022-12-18T05:50:40;31.67;;;15.67;;
9524;SDS011;15940;48.734;9.112;2022-12-18T05:53:10;29.80;;;15.07;;
9524;SDS011;15940;48.734;9.112;2022-12-18T05:55:39;23.97;;;13.80;;
9524;SDS011;15940;48.734;9.112;2022-12-18T05:58:08;25.30;;;13.33;;
9524;SDS011;15940;48.734;9.112;2022-12-18T06:00:39;27.77;;;14.73;;
9524;SDS011;15940;48.734;9.112;2022-12-18T06:03:10;25.27;;;14.20;;
9524;SDS011;15940;48.734;9.112;2022-12-18T06:05:40;26.27;;;14.63;;
9524;SDS011;15940;48.734;9.112;2022-12-18T06:08:09;30.43;;;15.67;;
9524;SDS011;15940;48.734;9.112;2022-12-18T06:10:37;28.30;;;15.07;;
9524;SDS011;15940;48.734;9.112;2022-12-18T06:13:04;29.53;;;15.03;;
9524;SDS011;15940;48.734;9.112;2022-12-18T06:15:32;27.77;;;15.70;;
9524;SDS011;15940;48.734;9.112;2022-12-18T06:18:01;29.57;;;15.97;;
9524;SDS011;15940;48.734;9.112;2022-12-18T06:20:28;28.47;;;15.60;;
9524;SDS011;15940;48.734;9.112;2022-12-18T06:22:55;30.50;;;16.17;;
9524;SDS011;15940;48.734;9.112;2022-12-18T06:25:22;27.97;;;16.13;;
9524;SDS011;15940;48.734;9.112;2022-12-18T06:27:49;30.13;;;15.50;;
9524;SDS011;15940;48.734;9.112;2022-12-18T06:30:16;28.90;;;15.67;;
9524;SDS011;15940;48.734;9.112;2022-12-18T06:32:43;30.70;;;16.03;;
9524;SDS011;15940;48.734;9.112;2022-12-18T06:35:12;30.77;;;15.60;;
9524;SDS011;15940;48.734;9.112;2022-12-18T06:37:38;29.07;;;15.30;;
9524;SDS011;15940;48.734;9.112;2022-12-18T06:40:06;33.03;;;16.10;;
9524;SDS011;15940;48.734;9.112;2022-12-18T06:42:34;25.13;;;14.23;;
9524;SDS011;15940;48.734;9.112;2022-12-18T06:45:01;30.67;;;14.50;;
9524;SDS011;15940;48.734;9.112;2022-12-18T06:47:28;27.53;;;14.43;;
9524;SDS011;15940;48.734;9.112;2022-12-18T06:49:55;26.90;;;14.47;;
9524;SDS011;15940;48.734;9.112;2022-12-18T06:52:23;31.37;;;15.00;;
9524;SDS011;15940;48.734;9.112;2022-12-18T06:54:50;27.60;;;14.47;;
9524;SDS011;15940;48.734;9.112;2022-12-18T06:57:17;25.07;;;14.30;;
9524;SDS011;15940;48.734;9.112;2022-12-18T06:59:44;25.10;;;14.20;;
9524;SDS011;15940;48.734;9.112;2022-12-18T07:02:11;27.93;;;15.10;;
9524;SDS011;15940;48.734;9.112;2022-12-18T07:04:39;27.67;;;15.03;;
9524;SDS011;15940;48.734;9.112;2022-12-18T07:07:06;28.13;;;14.67;;
9524;SDS011;15940;48.734;9.112;2022-12-18T07:09:34;27.37;;;14.63;;
9524;SDS011;15940;48.734;9.112;2022-12-18T07:12:01;26.10;;;14.23;;
9524;SDS011;15940;48.734;9.112;2022-12-18T07:14:29;29.20;;;14.30;;
9524;SDS011;15940;48.734;9.112;2022-12-18T07:16:56;29.00;;;14.63;;
9524;SDS011;15940;48.734;9.112;2022-12-18T07:19:23;30.53;;;14.77;;
9524;SDS011;15940;48.734;9.112;2022-12-18T07:21:50;29.43;;;15.53;;
9524;SDS011;15940;48.734;9.112;2022-12-18T07:24:17;25.43;;;13.50;;
9524;SDS011;15940;48.734;9.112;2022-12-18T07:26:46;29.63;;;14.43;;
9524;SDS011;15940;48.734;9.112;2022-12-18T07:29:13;27.93;;;14.93;;
9524;SDS011;15940;48.734;9.112;2022-12-18T07:31:40;29.63;;;15.27;;
9524;SDS011;15940;48.734;9.112;2022-12-18T07:34:09;30.23;;;14.77;;
9524;SDS011;15940;48.734;9.112;2022-12-18T07:36:37;28.23;;;15.00;;
9524;SDS011;15940;48.734;9.112;2022-12-18T07:39:04;33.47;;;16.40;;
9524;SDS011;15940;48.734;9.112;2022-12-18T07:41:31;34.37;;;16.10;;
9524;SDS011;15940;48.734;9.112;2022-12-18T07:44:00;33.83;;;15.63;;
9524;SDS011;15940;48.734;9.112;2022-12-18T07:46:27;33.23;;;15.87;;
9524;SDS011;15940;48.734;9.112;2022-12-18T07:48:54;31.73;;;15.67;;
9524;SDS011;15940;48.734;9.112;2022-12-18T07:51:21;29.53;;;15.10;;
9524;SDS011;15940;48.734;9.112;2022-12-18T07:53:48;31.27;;;16.00;;
9524;SDS011;15940;48.734;9.112;2022-12-18T07:56:15;34.57;;;16.40;;
9524;SDS011;15940;48.734;9.112;2022-12-18T07:58:42;29.13;;;16.17;;
9524;SDS011;15940;48.734;9.112;2022-12-18T08:01:11;37.10;;;16.47;;
9524;SDS011;15940;48.734;9.112;2022-12-18T08:03:39;30.73;;;16.20;;
9524;SDS011;15940;48.734;9.112;2022-12-18T08:06:07;33.83;;;16.37;;
9524;SDS011;15940;48.734;9.112;2022-12-18T08:08:35;31.50;;;15.73;;
9524;SDS011;15940;48.734;9.112;2022-12-18T08:11:03;31.40;;;16.07;;
9524;SDS011;15940;48.734;9.112;2022-12-18T08:13:30;30.03;;;15.97;;
9524;SDS011;15940;48.734;9.112;2022-12-18T08:15:57;29.70;;;16.20;;
9524;SDS011;15940;48.734;9.112;2022-12-18T08:18:27;29.43;;;15.67;;
9524;SDS011;15940;48.734;9.112;2022-12-18T08:20:54;33.67;;;17.13;;
9524;SDS011;15940;48.734;9.112;2022-12-18T08:23:22;29.60;;;15.97;;
9524;SDS011;15940;48.734;9.112;2022-12-18T08:25:49;30.53;;;16.67;;
9524;SDS011;15940;48.734;9.112;2022-12-18T08:28:16;28.67;;;16.03;;
9524;SDS011;15940;48.734;9.112;2022-12-18T08:30:43;31.10;;;17.27;;
9524;SDS011;15940;48.734;9.112;2022-12-18T08:33:11;30.90;;;17.90;;
9524;SDS011;15940;48.734;9.112;2022-12-18T08:35:40;30.83;;;16.97;;
9524;SDS011;15940;48.734;9.112;2022-12-18T08:38:06;30.20;;;17.23;;
9524;SDS011;15940;48.734;9.112;2022-12-18T08:40:33;38.37;;;18.10;;
9524;SDS011;15940;48.734;9.112;2022-12-18T08:43:00;41.53;;;20.57;;
9524;SDS011;15940;48.734;9.112;2022-12-18T08:45:45;64.53;;;30.60;;
9524;SDS011;15940;48.734;9.112;2022-12-18T08:48:12;45.10;;;21.63;;
9524;SDS011;15940;48.734;9.112;2022-12-18T08:50:40;38.30;;;19.73;;
9524;SDS011;15940;48.734;9.112;2022-12-18T08:53:07;34.30;;;19.37;;
9524;SDS011;15940;48.734;9.112;2022-12-18T08:55:34;38.07;;;20.97;;
9524;SDS011;15940;48.734;9.112;2022-12-18T08:58:01;36.70;;;19.37;;
9524;SDS011;15940;48.734;9.112;2022-12-18T09:00:28;41.70;;;23.70;;
9524;SDS011;15940;48.734;9.112;2022-12-18T09:02:55;42.50;;;23.93;;
9524;SDS011;15940;48.734;9.112;2022-12-18T09:05:22;31.70;;;15.50;;
9524;SDS011;15940;48.734;9.112;2022-12-18T09:07:50;32.77;;;16.53;;
9524;SDS011;15940;48.734;9.112;2022-12-18T09:10:17;35.43;;;19.13;;
9524;SDS011;15940;48.734;9.112;2022-12-18T09:12:44;35.03;;;17.63;;
9524;SDS011;15940;48.734;9.112;2022-12-18T09:15:11;35.13;;;19.47;;
9524;SDS011;15940;48.734;9.112;2022-12-18T09:17:38;42.13;;;21.83;;
9524;SDS011;15940;48.734;9.112;2022-12-18T09:20:06;37.73;;;20.90;;
9524;SDS011;15940;48.734;9.112;2022-12-18T09:22:34;33.80;;;18.97;;
9524;SDS011;15940;48.734;9.112;2022-12-18T09:25:02;51.83;;;22.37;;
9524;SDS011;15940;48.734;9.112;2022-12-18T09:27:32;44.03;;;22.27;;
9524;SDS011;15940;48.734;9.112;2022-12-18T09:29:59;34.73;;;19.73;;
9524;SDS011;15940;48.734;9.112;2022-12-18T09:32:26;35.67;;;19.20;;
9524;SDS011;15940;48.734;9.112;2022-12-18T09:34:53;39.97;;;18.83;;
9524;SDS011;15940;48.734;9.112;2022-12-18T09:37:20;75.40;;;29.43;;
9524;SDS011;15940;48.734;9.112;2022-12-18T09:39:47;54.17;;;23.00;;
9524;SDS011;15940;48.734;9.112;2022-12-18T09:42:17;58.53;;;28.77;;
9524;SDS011;15940;48.734;9.112;2022-12-18T09:44:48;43.67;;;23.40;;
9524;SDS011;15940;48.734;9.112;2022-12-18T09:47:19;39.47;;;19.93;;
9524;SDS011;15940;48.734;9.112;2022-12-18T09:49:52;42.47;;;23.23;;
9524;SDS011;15940;48.734;9.112;2022-12-18T09:52:25;40.63;;;23.30;;
9524;SDS011;15940;48.734;9.112;2022-12-18T09:54:57;30.53;;;18.10;;
9524;SDS011;15940;48.734;9.112;2022-12-18T09:57:29;33.73;;;19.20;;
9524;SDS011;15940;48.734;9.112;2022-12-18T10:00:02;31.20;;;17.50;;
9524;SDS011;15940;48.734;9.112;2022-12-18T10:02:35;30.03;;;16.33;;
9524;SDS011;15940;48.734;9.112;2022-12-18T10:05:06;36.53;;;21.23;;
9524;SDS011;15940;48.734;9.112;2022-12-18T10:07:41;33.80;;;18.93;;
9524;SDS011;15940;48.734;9.112;2022-12-18T10:10:19;34.43;;;19.03;;
9524;SDS011;15940;48.734;9.112;2022-12-18T10:13:01;32.90;;;18.67;;
9524;SDS011;15940;48.734;9.112;2022-12-18T10:15:37;32.40;;;18.53;;
9524;SDS011;15940;48.734;9.112;2022-12-18T10:18:19;33.33;;;17.37;;
9524;SDS011;15940;48.734;9.112;2022-12-18T10:20:59;35.53;;;20.00;;
9524;SDS011;15940;48.734;9.112;2022-12-18T10:23:37;32.33;;;18.00;;
9524;SDS011;15940;48.734;9.112;2022-12-18T10:26:10;33.40;;;21.27;;
9524;SDS011;15940;48.734;9.112;2022-12-18T10:28:39;34.83;;;17.90;;
9524;SDS011;15940;48.734;9.112;2022-12-18T10:31:07;31.30;;;18.30;;
9524;SDS011;15940;48.734;9.112;2022-12-18T10:33:41;31.67;;;16.77;;
9524;SDS011;15940;48.734;9.112;2022-12-18T10:36:08;28.83;;;16.43;;
9524;SDS011;15940;48.734;9.112;2022-12-18T10:38:35;40.90;;;22.07;;
9524;SDS011;15940;48.734;9.112;2022-12-18T10:41:03;41.07;;;21.83;;
9524;SDS011;15940;48.734;9.112;2022-12-18T10:43:35;35.63;;;20.23;;
9524;SDS011;15940;48.734;9.112;2022-12-18T10:46:11;36.83;;;20.20;;
9524;SDS011;15940;48.734;9.112;2022-12-18T10:48:47;31.73;;;17.63;;
9524;SDS011;15940;48.734;9.112;2022-12-18T10:51:19;32.03;;;19.17;;
9524;SDS011;15940;48.734;9.112;2022-12-18T10:53:54;33.70;;;19.33;;
9524;SDS011;15940;48.734;9.112;2022-12-18T10:56:23;32.77;;;18.43;;
9524;SDS011;15940;48.734;9.112;2022-12-18T10:58:58;33.30;;;17.33;;
9524;SDS011;15940;48.734;9.112;2022-12-18T11:01:28;31.57;;;16.47;;
9524;SDS011;15940;48.734;9.112;2022-12-18T11:04:15;29.50;;;16.80;;
9524;SDS011;15940;48.734;9.112;2022-12-18T11:06:53;33.57;;;18.40;;
9524;SDS011;15940;48.734;9.112;2022-12-18T11:09:24;32.57;;;17.93;;
9524;SDS011;15940;48.734;9.112;2022-12-18T11:11:53;34.87;;;17.23;;
9524;SDS011;15940;48.734;9.112;2022-12-18T11:14:22;32.60;;;16.97;;
9524;SDS011;15940;48.734;9.112;2022-12-18T11:16:52;31.60;;;17.90;;
9524;SDS011;15940;48.734;9.112;2022-12-18T11:19:25;30.73;;;17.53;;
9524;SDS011;15940;48.734;9.112;2022-12-18T11:21:58;32.57;;;18.10;;
9524;SDS011;15940;48.734;9.112;2022-12-18T11:24:28;29.93;;;15.93;;
9524;SDS011;15940;48.734;9.112;2022-12-18T11:27:00;34.67;;;17.90;;
9524;SDS011;15940;48.734;9.112;2022-12-18T11:29:34;33.47;;;18.50;;
9524;SDS011;15940;48.734;9.112;2022-12-18T11:32:18;38.43;;;20.33;;
9524;SDS011;15940;48.734;9.112;2022-12-18T11:35:02;35.93;;;18.37;;
9524;SDS011;15940;48.734;9.112;2022-12-18T11:37:41;30.27;;;16.97;;
9524;SDS011;15940;48.734;9.112;2022-12-18T11:40:24;32.20;;;16.77;;
9524;SDS011;15940;48.734;9.112;2022-12-18T11:42:58;62.77;;;33.53;;
9524;SDS011;15940;48.734;9.112;2022-12-18T11:45:33;33.70;;;17.83;;
9524;SDS011;15940;48.734;9.112;2022-12-18T11:48:09;37.07;;;19.03;;
9524;SDS011;15940;48.734;9.112;2022-12-18T11:50:44;35.50;;;19.03;;
9524;SDS011;15940;48.734;9.112;2022-12-18T11:53:16;43.00;;;22.63;;
9524;SDS011;15940;48.734;9.112;2022-12-18T11:55:47;36.37;;;20.33;;
9524;SDS011;15940;48.734;9.112;2022-12-18T11:58:41;34.73;;;18.80;;
9524;SDS011;15940;48.734;9.112;2022-12-18T12:01:21;33.37;;;17.47;;
9524;SDS011;15940;48.734;9.112;2022-12-18T12:07:03;38.43;;;18.83;;
9524;SDS011;15940;48.734;9.112;2022-12-18T12:09:46;42.87;;;22.47;;
9524;SDS011;15940;48.734;9.112;2022-12-18T12:12:28;35.00;;;18.40;;
9524;SDS011;15940;48.734;9.112;2022-12-18T12:15:13;35.47;;;19.17;;
9524;SDS011;15940;48.734;9.112;2022-12-18T12:17:54;32.57;;;18.37;;
9524;SDS011;15940;48.734;9.112;2022-12-18T12:20:33;34.00;;;18.30;;
9524;SDS011;15940;48.734;9.112;2022-12-18T12:23:13;40.80;;;22.13;;
9524;SDS011;15940;48.734;9.112;2022-12-18T12:25:49;36.27;;;19.10;;
9524;SDS011;15940;48.734;9.112;2022-12-18T12:28:27;35.93;;;19.33;;
9524;SDS011;15940;48.734;9.112;2022-12-18T12:31:19;34.20;;;19.37;;
9524;SDS011;15940;48.734;9.112;2022-12-18T12:34:00;35.97;;;19.07;;
9524;SDS011;15940;48.734;9.112;2022-12-18T12:36:42;37.53;;;20.67;;
9524;SDS011;15940;48.734;9.112;2022-12-18T12:39:26;46.53;;;25.83;;
9524;SDS011;15940;48.734;9.112;2022-12-18T12:41:57;43.03;;;23.63;;
9524;SDS011;15940;48.734;9.112;2022-12-18T12:44:43;39.70;;;22.70;;
9524;SDS011;15940;48.734;9.112;2022-12-18T12:47:15;55.87;;;31.23;;
9524;SDS011;15940;48.734;9.112;2022-12-18T12:49:47;38.17;;;20.63;;
9524;SDS011;15940;48.734;9.112;2022-12-18T12:52:27;42.70;;;24.43;;
9524;SDS011;15940;48.734;9.112;2022-12-18T12:54:58;40.27;;;22.40;;
9524;SDS011;15940;48.734;9.112;2022-12-18T12:57:30;39.20;;;21.77;;
9524;SDS011;15940;48.734;9.112;2022-12-18T13:00:04;70.53;;;38.80;;
9524;SDS011;15940;48.734;9.112;2022-12-18T13:02:36;50.07;;;30.73;;
9524;SDS011;15940;48.734;9.112;2022-12-18T13:05:14;43.47;;;22.57;;
9524;SDS011;15940;48.734;9.112;2022-12-18T13:07:52;37.40;;;20.37;;
9524;SDS011;15940;48.734;9.112;2022-12-18T13:10:32;38.87;;;20.87;;
9524;SDS011;15940;48.734;9.112;2022-12-18T13:13:03;35.20;;;20.87;;
9524;SDS011;15940;48.734;9.112;2022-12-18T13:15:33;48.03;;;28.47;;
9524;SDS011;15940;48.734;9.112;2022-12-18T13:20:51;38.27;;;21.17;;
9524;SDS011;15940;48.734;9.112;2022-12-18T13:23:37;41.03;;;21.40;;
9524;SDS011;15940;48.734;9.112;2022-12-18T13:28:58;42.63;;;24.87;;
9524;SDS011;15940;48.734;9.112;2022-12-18T13:35:01;39.10;;;21.90;;
9524;SDS011;15940;48.734;9.112;2022-12-18T13:38:16;40.53;;;23.40;;
9524;SDS011;15940;48.734;9.112;2022-12-18T13:43:28;34.57;;;20.53;;
9524;SDS011;15940;48.734;9.112;2022-12-18T13:46:05;48.63;;;26.03;;
9524;SDS011;15940;48.734;9.112;2022-12-18T13:48:49;43.73;;;24.57;;
9524;SDS011;15940;48.734;9.112;2022-12-18T13:51:31;34.20;;;20.80;;
9524;SDS011;15940;48.734;9.112;2022-12-18T13:54:00;38.57;;;21.27;;
9524;SDS011;15940;48.734;9.112;2022-12-18T13:56:32;38.33;;;20.57;;
9524;SDS011;15940;48.734;9.112;2022-12-18T13:59:11;40.70;;;23.03;;
9524;SDS011;15940;48.734;9.112;2022-12-18T14:01:42;32.50;;;18.63;;
9524;SDS011;15940;48.734;9.112;2022-12-18T14:04:19;33.47;;;19.27;;
9524;SDS011;15940;48.734;9.112;2022-12-18T14:06:51;37.57;;;21.50;;
9524;SDS011;15940;48.734;9.112;2022-12-18T14:09:24;38.33;;;21.03;;
9524;SDS011;15940;48.734;9.112;2022-12-18T14:11:54;41.30;;;24.00;;
9524;SDS011;15940;48.734;9.112;2022-12-18T14:14:37;38.80;;;21.10;;
9524;SDS011;15940;48.734;9.112;2022-12-18T14:17:08;37.33;;;19.73;;
9524;SDS011;15940;48.734;9.112;2022-12-18T14:19:36;37.03;;;21.83;;
9524;SDS011;15940;48.734;9.112;2022-12-18T14:22:11;40.97;;;22.03;;
9524;SDS011;15940;48.734;9.112;2022-12-18T14:24:44;36.80;;;20.57;;
9524;SDS011;15940;48.734;9.112;2022-12-18T14:27:13;37.07;;;20.63;;
9524;SDS011;15940;48.734;9.112;2022-12-18T14:29:49;35.27;;;20.47;;
9524;SDS011;15940;48.734;9.112;2022-12-18T14:32:17;36.33;;;18.87;;
9524;SDS011;15940;48.734;9.112;2022-12-18T14:34:46;32.93;;;18.63;;
9524;SDS011;15940;48.734;9.112;2022-12-18T14:37:17;35.60;;;19.63;;
9524;SDS011;15940;48.734;9.112;2022-12-18T14:39:54;32.97;;;17.93;;
9524;SDS011;15940;48.734;9.112;2022-12-18T14:42:23;33.37;;;19.73;;
9524;SDS011;15940;48.734;9.112;2022-12-18T14:47:58;40.77;;;22.83;;
9524;SDS011;15940;48.734;9.112;2022-12-18T14:50:26;43.27;;;21.63;;
9524;SDS011;15940;48.734;9.112;2022-12-18T14:52:54;34.83;;;20.03;;
9524;SDS011;15940;48.734;9.112;2022-12-18T14:55:21;42.07;;;21.63;;
9524;SDS011;15940;48.734;9.112;2022-12-18T14:57:49;38.30;;;20.37;;
9524;SDS011;15940;48.734;9.112;2022-12-18T15:00:19;35.17;;;19.57;;
9524;SDS011;15940;48.734;9.112;2022-12-18T15:02:50;36.80;;;20.00;;
9524;SDS011;15940;48.734;9.112;2022-12-18T15:05:21;39.90;;;20.00;;
9524;SDS011;15940;48.734;9.112;2022-12-18T15:07:55;38.37;;;19.10;;
9524;SDS011;15940;48.734;9.112;2022-12-18T15:10:24;39.47;;;19.13;;
9524;SDS011;15940;48.734;9.112;2022-12-18T15:13:06;40.60;;;19.93;;
9524;SDS011;15940;48.734;9.112;2022-12-18T15:15:47;38.93;;;21.87;;